createdAt,value
2017-05-23T00:02:20.542Z,5.60
2017-05-23T00:04:48.877Z,6.20
2017-05-23T00:07:17.950Z,6.86
2017-05-23T00:09:46.318Z,5.30
2017-05-23T00:12:14.634Z,5.70
2017-05-23T00:14:42.949Z,5.66
2017-05-23T00:17:12.015Z,5.08
2017-05-23T00:19:40.371Z,4.66
2017-05-23T00:22:08.666Z,5.26
2017-05-23T00:24:36.973Z,5.52
2017-05-23T00:27:05.322Z,5.84
2017-05-23T00:29:33.625Z,6.58
2017-05-23T00:32:01.925Z,6.54
2017-05-23T00:34:30.274Z,5.56
2017-05-23T00:36:59.339Z,5.60
2017-05-23T00:39:27.653Z,5.02
2017-05-23T00:41:55.974Z,5.70
2017-05-23T00:44:24.298Z,5.50
2017-05-23T00:46:53.370Z,5.30
2017-05-23T00:49:21.719Z,5.32
2017-05-23T00:51:50.025Z,5.08
2017-05-23T00:54:18.329Z,5.24
2017-05-23T00:56:47.430Z,5.24
2017-05-23T00:59:16.494Z,5.20
2017-05-23T01:01:44.793Z,4.98
2017-05-23T01:04:13.135Z,6.24
2017-05-23T01:06:41.439Z,6.10
2017-05-23T01:09:09.744Z,5.56
2017-05-23T01:11:38.154Z,5.30
2017-05-23T01:14:06.480Z,6.28
2017-05-23T01:16:34.793Z,5.54
2017-05-23T01:19:03.890Z,4.92
2017-05-23T01:21:32.237Z,5.34
2017-05-23T01:24:01.302Z,5.36
2017-05-23T01:26:29.606Z,5.52
2017-05-23T01:28:57.950Z,5.34
2017-05-23T01:31:26.289Z,5.48
2017-05-23T01:33:54.593Z,6.10
2017-05-23T01:36:23.702Z,5.36
2017-05-23T01:38:52.730Z,6.48
2017-05-23T01:41:21.039Z,6.08
2017-05-23T01:43:49.383Z,6.92
2017-05-23T01:46:18.451Z,6.82
2017-05-23T01:48:46.781Z,6.34
2017-05-23T01:51:15.114Z,6.74
2017-05-23T01:53:43.427Z,8.68
2017-05-23T01:56:11.737Z,6.16
2017-05-23T01:58:40.083Z,6.14
2017-05-23T02:01:08.426Z,5.42
2017-05-23T02:03:36.728Z,7.10
2017-05-23T02:06:05.183Z,8.16
2017-05-23T02:08:33.483Z,7.20
2017-05-23T02:11:01.909Z,6.68
2017-05-23T02:13:30.259Z,6.72
2017-05-23T02:15:58.566Z,7.26
2017-05-23T02:18:26.867Z,7.98
2017-05-23T02:20:55.211Z,7.42
2017-05-23T02:23:23.517Z,6.20
2017-05-23T02:25:52.587Z,6.16
2017-05-23T02:28:20.950Z,6.14
2017-05-23T02:30:49.245Z,8.12
2017-05-23T02:33:17.552Z,6.64
2017-05-23T02:35:45.917Z,7.56
2017-05-23T02:38:14.221Z,7.12
2017-05-23T02:40:42.562Z,8.44
2017-05-23T02:43:10.927Z,6.58
2017-05-23T02:45:39.228Z,7.36
2017-05-23T02:48:07.565Z,7.40
2017-05-23T02:50:35.866Z,6.80
2017-05-23T02:53:04.175Z,7.24
2017-05-23T02:55:32.522Z,7.68
2017-05-23T02:58:00.822Z,7.12
2017-05-23T03:00:29.891Z,7.10
2017-05-23T03:02:58.242Z,7.50
2017-05-23T03:05:26.566Z,9.24
2017-05-23T03:07:55.640Z,6.00
2017-05-23T03:10:23.975Z,7.40
2017-05-23T03:12:52.281Z,6.84
2017-05-23T03:15:20.582Z,7.96
2017-05-23T03:17:48.932Z,6.86
2017-05-23T03:20:17.240Z,8.28
2017-05-23T03:22:45.543Z,7.42
2017-05-23T03:25:13.898Z,8.42
2017-05-23T03:27:42.205Z,9.10
2017-05-23T03:30:11.272Z,7.24
2017-05-23T03:32:39.645Z,7.80
2017-05-23T03:35:07.959Z,8.80
2017-05-23T03:37:36.267Z,7.64
2017-05-23T03:40:04.625Z,7.54
2017-05-23T03:42:32.949Z,7.12
2017-05-23T03:45:01.252Z,7.94
2017-05-23T03:47:29.611Z,7.22
2017-05-23T03:49:58.678Z,6.76
2017-05-23T03:52:27.004Z,6.72
2017-05-23T03:54:55.365Z,8.32
2017-05-23T03:57:23.660Z,7.40
2017-05-23T03:59:51.966Z,11.88
2017-05-23T04:02:20.313Z,8.72
2017-05-23T04:04:49.383Z,7.90
2017-05-23T04:07:17.683Z,7.20
2017-05-23T04:09:46.047Z,7.86
2017-05-23T04:12:14.354Z,8.26
2017-05-23T04:14:43.427Z,8.24
2017-05-23T04:17:11.770Z,8.46
2017-05-23T04:19:40.853Z,8.30
2017-05-23T04:22:09.967Z,7.20
2017-05-23T04:24:38.269Z,8.22
2017-05-23T04:27:06.575Z,7.82
2017-05-23T04:29:34.915Z,8.50
2017-05-23T04:32:03.218Z,8.34
2017-05-23T04:34:31.521Z,7.10
2017-05-23T04:36:59.862Z,10.76
2017-05-23T04:39:28.165Z,8.90
2017-05-23T04:41:56.474Z,7.82
2017-05-23T04:44:25.599Z,8.34
2017-05-23T04:46:53.905Z,7.72
2017-05-23T04:49:22.207Z,7.96
2017-05-23T04:51:50.838Z,8.28
2017-05-23T04:54:19.150Z,9.32
2017-05-23T04:56:48.220Z,8.24
2017-05-23T04:59:17.329Z,8.26
2017-05-23T05:01:45.664Z,9.02
2017-05-23T05:04:13.967Z,9.26
2017-05-23T05:06:42.309Z,8.62
2017-05-23T05:09:10.613Z,9.30
2017-05-23T05:11:38.943Z,8.58
2017-05-23T05:14:08.198Z,9.22
2017-05-23T05:16:36.497Z,7.90
2017-05-23T05:19:04.810Z,9.58
2017-05-23T05:21:33.153Z,8.12
2017-05-23T05:24:02.232Z,9.00
2017-05-23T05:26:30.537Z,9.02
2017-05-23T05:28:59.653Z,9.50
2017-05-23T05:31:27.954Z,9.48
2017-05-23T05:33:56.254Z,8.62
2017-05-23T05:36:24.624Z,10.32
2017-05-23T05:38:52.929Z,9.40
2017-05-23T05:41:21.233Z,8.18
2017-05-23T05:43:49.586Z,8.48
2017-05-23T05:46:17.885Z,10.38
2017-05-23T05:48:46.972Z,9.68
2017-05-23T05:51:15.330Z,9.96
2017-05-23T05:53:43.668Z,10.42
2017-05-23T05:56:11.990Z,9.66
2017-05-23T05:58:40.347Z,10.50
2017-05-23T06:01:08.654Z,9.30
2017-05-23T06:03:36.965Z,10.18
2017-05-23T06:06:05.975Z,10.54
2017-05-23T06:08:34.326Z,9.58
2017-05-23T06:11:03.337Z,9.76
2017-05-23T06:13:37.066Z,10.38
2017-05-23T06:16:05.378Z,9.50
2017-05-23T06:18:33.696Z,11.14
2017-05-23T06:21:02.043Z,9.56
2017-05-23T06:23:30.352Z,10.42
2017-05-23T06:25:58.654Z,9.70
2017-05-23T06:28:27.002Z,9.80
2017-05-23T06:30:55.321Z,11.06
2017-05-23T06:33:23.637Z,11.80
2017-05-23T06:35:51.983Z,10.54
2017-05-23T06:38:21.058Z,9.06
2017-05-23T06:40:49.365Z,10.36
2017-05-23T06:43:17.709Z,9.50
2017-05-23T06:45:46.030Z,11.40
2017-05-23T06:48:15.101Z,9.48
2017-05-23T06:50:44.214Z,10.44
2017-05-23T06:53:12.524Z,12.52
2017-05-23T06:55:40.829Z,12.84
2017-05-23T06:58:09.280Z,9.40
2017-05-23T07:00:37.586Z,11.36
2017-05-23T07:03:05.899Z,13.84
2017-05-23T07:05:34.245Z,11.42
2017-05-23T07:08:02.559Z,17.28
2017-05-23T07:10:30.864Z,10.62
2017-05-23T07:12:59.219Z,10.16
2017-05-23T07:15:27.525Z,10.48
2017-05-23T07:17:56.622Z,12.50
2017-05-23T07:20:25.752Z,15.16
2017-05-23T07:22:54.090Z,11.00
2017-05-23T07:25:22.395Z,9.06
2017-05-23T07:27:50.748Z,9.64
2017-05-23T07:30:19.821Z,9.84
2017-05-23T07:32:48.129Z,7.38
2017-05-23T07:35:16.478Z,8.86
2017-05-23T07:37:44.782Z,7.98
2017-05-23T07:40:13.858Z,7.70
2017-05-23T07:42:42.209Z,8.94
2017-05-23T07:45:10.518Z,9.26
2017-05-23T07:47:39.604Z,8.72
2017-05-23T07:50:08.021Z,7.04
2017-05-23T07:52:36.335Z,10.36
2017-05-23T07:55:04.679Z,9.50
2017-05-23T07:57:33.754Z,8.12
2017-05-23T08:00:02.073Z,8.38
2017-05-23T08:02:30.418Z,7.36
2017-05-23T08:04:59.491Z,6.88
2017-05-23T08:07:28.608Z,6.58
2017-05-23T08:09:57.686Z,7.26
2017-05-23T08:12:26.801Z,7.22
2017-05-23T08:14:55.114Z,8.44
2017-05-23T08:17:23.418Z,7.80
2017-05-23T08:19:52.542Z,23.58
2017-05-23T08:22:21.621Z,9.76
2017-05-23T08:24:49.934Z,12.10
2017-05-23T08:27:19.042Z,9.00
2017-05-23T08:29:47.355Z,8.08
2017-05-23T08:32:16.496Z,7.98
2017-05-23T08:34:44.802Z,7.46
2017-05-23T08:37:13.110Z,7.62
2017-05-23T08:39:41.455Z,7.00
2017-05-23T08:42:09.901Z,7.66
2017-05-23T08:44:38.210Z,7.40
2017-05-23T08:47:06.559Z,7.04
2017-05-23T08:49:34.868Z,9.10
2017-05-23T08:52:03.942Z,6.12
2017-05-23T08:54:32.298Z,5.84
2017-05-23T08:57:00.609Z,6.04
2017-05-23T08:59:29.689Z,5.52
2017-05-23T09:01:58.047Z,5.62
2017-05-23T09:04:26.366Z,5.42
2017-05-23T09:06:54.676Z,5.02
2017-05-23T09:09:23.022Z,5.74
2017-05-23T09:11:51.349Z,4.70
2017-05-23T09:14:19.650Z,6.66
2017-05-23T09:16:47.995Z,4.70
2017-05-23T09:19:16.305Z,5.34
2017-05-23T09:21:45.471Z,5.24
2017-05-23T09:24:14.538Z,4.92
2017-05-23T09:26:49.262Z,6.60
2017-05-23T09:29:18.378Z,4.68
2017-05-23T09:31:47.455Z,5.12
2017-05-23T09:34:15.757Z,4.74
2017-05-23T09:36:44.877Z,5.22
2017-05-23T09:39:13.185Z,5.04
2017-05-23T09:41:42.254Z,6.94
2017-05-23T09:44:10.767Z,5.20
2017-05-23T09:46:39.070Z,5.06
2017-05-23T09:49:07.373Z,6.16
2017-05-23T09:51:35.730Z,4.82
2017-05-23T09:54:04.798Z,5.06
2017-05-23T09:56:33.110Z,5.04
2017-05-23T09:59:02.225Z,5.00
2017-05-23T10:01:30.533Z,6.20
2017-05-23T10:03:59.602Z,4.94
2017-05-23T10:06:27.964Z,4.32
2017-05-23T10:08:56.274Z,4.72
2017-05-23T10:11:24.578Z,4.58
2017-05-23T10:13:52.926Z,6.10
2017-05-23T10:16:21.330Z,5.60
2017-05-23T10:18:49.632Z,5.54
2017-05-23T10:21:17.979Z,6.08
2017-05-23T10:23:46.301Z,5.50
2017-05-23T10:26:14.611Z,5.52
2017-05-23T10:28:42.969Z,6.54
2017-05-23T10:31:12.046Z,6.26
2017-05-23T10:33:40.364Z,5.30
2017-05-23T10:36:09.081Z,6.12
2017-05-23T10:38:37.378Z,5.86
2017-05-23T10:41:05.686Z,6.36
2017-05-23T10:43:34.043Z,6.00
2017-05-23T10:46:02.350Z,4.98
2017-05-23T10:48:30.666Z,3.78
2017-05-23T10:50:59.801Z,5.08
2017-05-23T10:53:28.113Z,5.32
2017-05-23T10:55:56.425Z,3.72
2017-05-23T10:58:25.549Z,5.26
2017-05-23T11:00:53.859Z,3.96
2017-05-23T11:03:22.178Z,3.62
2017-05-23T11:05:51.303Z,5.46
2017-05-23T11:08:19.612Z,4.28
2017-05-23T11:10:47.921Z,3.56
2017-05-23T11:13:17.029Z,4.32
2017-05-23T11:15:45.347Z,6.52
2017-05-23T11:18:13.653Z,4.82
2017-05-23T11:20:42.026Z,3.70
2017-05-23T11:23:10.377Z,3.42
2017-05-23T11:25:38.693Z,3.96
2017-05-23T11:28:07.821Z,5.14
2017-05-23T11:30:36.152Z,3.32
2017-05-23T11:33:05.222Z,4.12
2017-05-23T11:35:34.338Z,3.70
2017-05-23T11:38:02.681Z,3.68
2017-05-23T11:40:30.987Z,6.20
2017-05-23T11:43:00.061Z,8.44
2017-05-23T11:45:28.403Z,3.90
2017-05-23T11:47:56.714Z,4.26
2017-05-23T11:50:25.031Z,4.38
2017-05-23T11:52:54.170Z,4.28
2017-05-23T11:55:22.485Z,4.40
2017-05-23T11:57:51.558Z,4.90
2017-05-23T12:00:19.906Z,4.12
2017-05-23T12:02:48.237Z,3.82
2017-05-23T12:05:17.556Z,5.94
2017-05-23T12:07:46.686Z,3.48
2017-05-23T12:10:15.776Z,5.98
2017-05-23T12:12:44.088Z,3.60
2017-05-23T12:15:12.467Z,5.54
2017-05-23T12:17:40.787Z,3.48
2017-05-23T12:20:09.098Z,3.86
2017-05-23T12:22:38.228Z,3.98
2017-05-23T12:25:06.545Z,3.56
2017-05-23T12:27:34.853Z,3.60
2017-05-23T12:30:03.965Z,3.60
2017-05-23T12:32:32.269Z,3.66
2017-05-23T12:35:01.368Z,3.54
2017-05-23T12:37:29.726Z,2.90
2017-05-23T12:39:58.798Z,4.02
2017-05-23T12:42:27.114Z,3.40
2017-05-23T12:44:55.479Z,3.52
2017-05-23T12:47:23.794Z,3.10
2017-05-23T12:49:52.130Z,9.06
2017-05-23T12:52:20.486Z,2.08
2017-05-23T12:54:49.558Z,2.70
2017-05-23T12:57:17.865Z,3.72
2017-05-23T12:59:46.490Z,4.44
2017-05-23T13:02:15.565Z,2.30
2017-05-23T13:04:44.683Z,2.52
2017-05-23T13:07:12.996Z,2.08
2017-05-23T13:09:41.334Z,1.80
2017-05-23T13:12:09.698Z,3.00
2017-05-23T13:14:38.010Z,2.14
2017-05-23T13:17:06.318Z,1.86
2017-05-23T13:19:34.686Z,1.52
2017-05-23T13:22:02.992Z,1.70
2017-05-23T13:24:31.330Z,1.74
2017-05-23T13:26:59.687Z,5.02
2017-05-23T13:29:28.011Z,1.46
2017-05-23T13:31:56.474Z,1.46
2017-05-23T13:34:24.859Z,1.92
2017-05-23T13:36:53.183Z,1.14
2017-05-23T13:39:21.525Z,3.30
2017-05-23T13:41:49.887Z,1.70
2017-05-23T13:44:18.217Z,1.94
2017-05-23T13:46:46.566Z,1.52
2017-05-23T13:49:15.040Z,1.60
2017-05-23T13:51:43.367Z,1.50
2017-05-23T13:54:11.699Z,1.92
2017-05-23T13:56:40.069Z,1.80
2017-05-23T13:59:08.384Z,1.68
2017-05-23T14:01:36.698Z,1.82
2017-05-23T14:04:05.845Z,2.08
2017-05-23T14:06:34.170Z,2.46
2017-05-23T14:09:02.489Z,1.86
2017-05-23T14:11:30.833Z,2.12
2017-05-23T14:13:59.142Z,2.40
2017-05-23T14:16:27.450Z,2.54
2017-05-23T14:18:56.579Z,2.04
2017-05-23T14:21:24.882Z,1.68
2017-05-23T14:23:53.206Z,2.58
2017-05-23T14:26:21.555Z,1.62
2017-05-23T14:28:49.871Z,2.12
2017-05-23T14:31:18.948Z,4.52
2017-05-23T14:33:47.291Z,2.28
2017-05-23T14:36:16.363Z,2.10
2017-05-23T14:38:44.682Z,3.32
2017-05-23T14:41:13.047Z,2.34
2017-05-23T14:43:41.366Z,2.10
2017-05-23T14:46:09.689Z,1.56
2017-05-23T14:48:38.037Z,7.46
2017-05-23T14:51:06.342Z,2.90
2017-05-23T14:53:34.649Z,3.88
2017-05-23T14:56:03.017Z,1.78
2017-05-23T14:58:31.334Z,2.00
2017-05-23T15:00:59.639Z,2.38
2017-05-23T15:03:27.993Z,4.40
2017-05-23T15:05:56.298Z,1.78
2017-05-23T15:08:24.614Z,1.52
2017-05-23T15:10:53.729Z,1.26
2017-05-23T15:13:22.042Z,1.48
2017-05-23T15:15:50.350Z,2.14
2017-05-23T15:18:18.691Z,2.12
2017-05-23T15:20:47.001Z,1.94
2017-05-23T15:23:15.313Z,2.26
2017-05-23T15:25:43.658Z,2.24
2017-05-23T15:28:12.759Z,3.12
2017-05-23T15:30:41.105Z,2.62
2017-05-23T15:33:10.231Z,3.88
2017-05-23T15:35:39.298Z,2.72
2017-05-23T15:38:07.602Z,1.42
2017-05-23T15:40:35.957Z,2.60
2017-05-23T15:43:05.026Z,4.12
2017-05-23T15:45:33.330Z,1.88
2017-05-23T15:48:01.686Z,1.74
2017-05-23T15:50:30.754Z,1.76
2017-05-23T15:52:59.081Z,2.58
2017-05-23T15:55:27.437Z,2.84
2017-05-23T15:57:55.762Z,2.74
2017-05-23T16:00:24.070Z,3.80
2017-05-23T16:02:52.433Z,3.06
2017-05-23T16:05:21.506Z,3.82
2017-05-23T16:07:49.814Z,2.14
2017-05-23T16:10:18.187Z,2.96
2017-05-23T16:12:46.494Z,2.44
2017-05-23T16:15:15.567Z,4.42
2017-05-23T16:17:43.924Z,2.14
2017-05-23T16:20:12.233Z,2.28
2017-05-23T16:22:40.541Z,2.78
2017-05-23T16:25:08.885Z,1.96
2017-05-23T16:27:37.958Z,9.14
2017-05-23T16:30:06.259Z,1.88
2017-05-23T16:32:34.641Z,2.20
2017-05-23T16:35:03.755Z,4.06
2017-05-23T16:37:32.082Z,2.70
2017-05-23T16:40:00.437Z,1.68
2017-05-23T16:42:28.748Z,1.80
2017-05-23T16:44:57.162Z,2.60
2017-05-23T16:47:25.509Z,2.20
2017-05-23T16:49:54.589Z,2.56
2017-05-23T16:52:22.950Z,1.90
2017-05-23T16:54:51.268Z,10.22
2017-05-23T16:57:19.681Z,2.10
2017-05-23T16:59:47.978Z,1.96
2017-05-23T17:02:16.434Z,4.36
2017-05-23T17:04:45.503Z,3.22
2017-05-23T17:07:13.811Z,3.82
2017-05-23T17:09:42.154Z,4.00
2017-05-23T17:12:10.580Z,6.50
2017-05-23T17:14:38.931Z,2.88
2017-05-23T17:17:07.303Z,3.84
2017-05-23T17:19:35.606Z,2.26
2017-05-23T17:22:04.766Z,3.04
2017-05-23T17:24:33.877Z,5.08
2017-05-23T17:27:02.178Z,2.48
2017-05-23T17:29:30.481Z,3.70
2017-05-23T17:31:58.825Z,4.16
2017-05-23T17:34:27.136Z,5.08
2017-05-23T17:36:55.446Z,4.50
2017-05-23T17:39:23.802Z,2.48
2017-05-23T17:41:52.109Z,3.68
2017-05-23T17:44:20.418Z,4.72
2017-05-23T17:46:48.790Z,4.98
2017-05-23T17:49:17.900Z,2.96
2017-05-23T17:51:46.201Z,5.64
2017-05-23T17:54:15.453Z,4.06
2017-05-23T17:56:43.754Z,5.50
2017-05-23T17:59:12.833Z,3.72
2017-05-23T18:01:41.206Z,3.36
2017-05-23T18:04:09.511Z,3.34
2017-05-23T18:06:37.825Z,3.38
2017-05-23T18:09:06.211Z,3.08
2017-05-23T18:11:34.518Z,2.88
2017-05-23T18:14:03.590Z,3.58
2017-05-23T18:16:32.714Z,3.32
2017-05-23T18:19:01.022Z,3.70
2017-05-23T18:21:29.333Z,5.72
2017-05-23T18:23:57.695Z,3.92
2017-05-23T18:26:26.010Z,3.56
2017-05-23T18:28:54.319Z,3.96
2017-05-23T18:31:23.458Z,4.94
2017-05-23T18:33:51.766Z,7.00
2017-05-23T18:36:20.832Z,5.60
2017-05-23T18:38:49.192Z,4.18
2017-05-23T18:41:17.588Z,4.76
2017-05-23T18:43:45.897Z,4.98
2017-05-23T18:46:14.245Z,4.58
2017-05-23T18:48:43.366Z,5.14
2017-05-23T18:51:11.665Z,5.86
2017-05-23T18:53:40.010Z,4.14
2017-05-23T18:56:08.317Z,3.90
2017-05-23T18:58:36.621Z,4.08
2017-05-23T19:01:04.958Z,4.00
2017-05-23T19:03:34.025Z,8.64
2017-05-23T19:06:02.326Z,5.66
2017-05-23T19:08:31.465Z,3.38
2017-05-23T19:10:59.774Z,4.06
2017-05-23T19:13:28.083Z,4.44
2017-05-23T19:15:56.439Z,4.82
2017-05-23T19:18:24.755Z,5.46
2017-05-23T19:20:53.058Z,4.74
2017-05-23T19:23:21.429Z,7.30
2017-05-23T19:25:49.729Z,6.48
2017-05-23T19:28:18.287Z,4.80
2017-05-23T19:30:46.650Z,7.10
2017-05-23T19:33:14.977Z,4.06
2017-05-23T19:35:43.282Z,5.98
2017-05-23T19:38:12.410Z,3.48
2017-05-23T19:40:40.714Z,6.94
2017-05-23T19:43:09.064Z,4.92
2017-05-23T19:45:37.463Z,4.30
2017-05-23T19:48:05.781Z,5.66
2017-05-23T19:50:34.085Z,3.88
2017-05-23T19:53:02.427Z,3.86
2017-05-23T19:55:30.730Z,3.08
2017-05-23T19:57:59.113Z,3.88
2017-05-23T20:00:27.481Z,4.96
2017-05-23T20:02:55.786Z,5.14
2017-05-23T20:05:24.101Z,6.00
2017-05-23T20:07:52.469Z,5.46
2017-05-23T20:10:20.776Z,6.76
2017-05-23T20:12:49.100Z,3.12
2017-05-23T20:15:17.441Z,5.76
2017-05-23T20:17:45.753Z,4.56
2017-05-23T20:20:14.083Z,4.62
2017-05-23T20:22:42.429Z,2.02
2017-05-23T20:25:10.742Z,3.34
2017-05-23T20:27:39.053Z,2.84
2017-05-23T20:30:07.395Z,4.02
2017-05-23T20:32:35.701Z,2.24
2017-05-23T20:35:04.013Z,11.26
2017-05-23T20:37:32.366Z,2.30
2017-05-23T20:40:00.677Z,4.12
2017-05-23T20:42:28.993Z,2.58
2017-05-23T20:44:57.334Z,2.64
2017-05-23T20:47:25.643Z,2.22
2017-05-23T20:49:53.988Z,3.76
2017-05-23T20:52:22.382Z,3.96
2017-05-23T20:54:50.690Z,4.18
2017-05-23T20:57:19.002Z,4.46
2017-05-23T20:59:47.343Z,1.84
2017-05-23T21:02:15.651Z,3.04
2017-05-23T21:04:44.069Z,2.96
2017-05-23T21:07:12.418Z,1.98
2017-05-23T21:09:40.721Z,1.50
2017-05-23T21:12:09.025Z,3.12
2017-05-23T21:14:37.365Z,2.42
2017-05-23T21:17:05.669Z,1.86
2017-05-23T21:19:33.965Z,2.84
2017-05-23T21:22:02.314Z,1.20
2017-05-23T21:24:30.611Z,6.28
2017-05-23T21:26:59.679Z,3.74
2017-05-23T21:29:28.028Z,1.12
2017-05-23T21:31:56.338Z,1.92
2017-05-23T21:34:24.643Z,1.44
2017-05-23T21:36:52.989Z,2.08
2017-05-23T21:39:21.297Z,1.10
2017-05-23T21:41:50.367Z,2.24
2017-05-23T21:44:18.737Z,0.98
2017-05-23T21:46:47.805Z,3.62
2017-05-23T21:49:16.111Z,2.44
2017-05-23T21:51:44.456Z,1.18
2017-05-23T21:54:12.763Z,3.68
2017-05-23T21:56:41.841Z,0.80
2017-05-23T21:59:10.207Z,2.30
2017-05-23T22:01:39.280Z,1.34
2017-05-23T22:04:07.587Z,2.12
2017-05-23T22:06:35.937Z,2.54
2017-05-23T22:09:04.237Z,2.42
2017-05-23T22:11:32.538Z,1.90
2017-05-23T22:14:00.890Z,1.20
2017-05-23T22:16:29.193Z,3.04
2017-05-23T22:18:58.266Z,2.20
2017-05-23T22:21:27.499Z,5.70
2017-05-23T22:23:55.826Z,1.48
2017-05-23T22:26:24.133Z,1.58
2017-05-23T22:28:53.250Z,1.40
2017-05-23T22:31:21.555Z,1.28
2017-05-23T22:33:49.858Z,1.22
2017-05-23T22:36:19.233Z,0.80
2017-05-23T22:38:47.538Z,0.60
2017-05-23T22:41:15.837Z,1.70
2017-05-23T22:43:44.195Z,1.50
2017-05-23T22:46:13.271Z,0.74
2017-05-23T22:48:41.581Z,2.40
2017-05-23T22:51:09.925Z,1.28
2017-05-23T22:53:38.995Z,3.00
2017-05-23T22:56:07.374Z,2.04
2017-05-23T22:58:35.727Z,3.88
2017-05-23T23:01:04.035Z,1.54
2017-05-23T23:03:33.100Z,2.40
2017-05-23T23:06:01.448Z,1.06
2017-05-23T23:08:29.748Z,2.18
2017-05-23T23:10:58.053Z,1.84
2017-05-23T23:13:26.401Z,1.12
2017-05-23T23:15:54.713Z,0.76
2017-05-23T23:18:23.789Z,1.14
2017-05-23T23:20:52.928Z,1.82
2017-05-23T23:23:21.233Z,2.60
2017-05-23T23:25:49.610Z,6.92
2017-05-23T23:28:18.713Z,1.52
2017-05-23T23:30:47.013Z,1.78
2017-05-23T23:33:16.092Z,1.82
2017-05-23T23:35:45.210Z,1.26
2017-05-23T23:38:13.512Z,1.06
2017-05-23T23:40:41.811Z,1.84
2017-05-23T23:43:10.213Z,1.88
2017-05-23T23:45:38.519Z,3.72
2017-05-23T23:48:06.823Z,1.46
2017-05-23T23:50:35.166Z,2.50
2017-05-23T23:53:03.477Z,1.42
2017-05-23T23:55:31.850Z,1.82
2017-05-23T23:58:00.191Z,3.28
